createdAt,value
2023-04-13T00:01:13.589Z,0.93
2023-04-13T00:03:40.781Z,0.65
2023-04-13T00:06:11.122Z,0.75
2023-04-13T00:08:38.832Z,0.90
2023-04-13T00:11:07.509Z,1.42
2023-04-13T00:13:41.224Z,0.43
2023-04-13T00:16:09.832Z,0.68
2023-04-13T00:18:36.867Z,0.30
2023-04-13T00:21:04.100Z,1.17
2023-04-13T00:23:31.935Z,0.40
2023-04-13T00:26:01.372Z,0.55
2023-04-13T00:28:29.586Z,0.60
2023-04-13T00:30:58.990Z,0.43
2023-04-13T00:33:26.115Z,0.57
2023-04-13T00:35:53.122Z,0.30
2023-04-13T00:38:20.126Z,0.45
2023-04-13T00:40:47.145Z,0.20
2023-04-13T00:43:14.818Z,0.57
2023-04-13T00:45:43.639Z,0.43
2023-04-13T00:48:11.313Z,0.75
2023-04-13T00:50:39.623Z,0.43
2023-04-13T00:53:10.437Z,0.55
2023-04-13T00:55:39.289Z,0.52
2023-04-13T00:58:06.506Z,0.60
2023-04-13T01:00:33.521Z,0.77
2023-04-13T01:03:01.780Z,0.40
2023-04-13T01:05:35.307Z,0.50
2023-04-13T01:08:20.903Z,0.73
2023-04-13T01:10:54.148Z,0.93
2023-04-13T01:13:40.482Z,0.45
2023-04-13T01:16:11.918Z,0.20
2023-04-13T01:18:41.752Z,0.22
2023-04-13T01:21:14.670Z,0.57
2023-04-13T01:23:58.747Z,1.00
2023-04-13T01:26:51.371Z,0.47
2023-04-13T01:29:18.744Z,0.50
2023-04-13T01:31:48.602Z,0.43
2023-04-13T01:34:16.594Z,0.60
2023-04-13T01:36:45.707Z,0.30
2023-04-13T01:39:20.145Z,0.55
2023-04-13T01:41:48.402Z,0.60
2023-04-13T01:44:15.587Z,0.82
2023-04-13T01:46:47.566Z,0.47
2023-04-13T01:49:35.323Z,0.60
2023-04-13T01:52:27.835Z,0.40
2023-04-13T01:54:56.339Z,0.30
2023-04-13T01:57:24.738Z,0.40
2023-04-13T01:59:52.387Z,0.60
2023-04-13T02:02:21.119Z,0.68
2023-04-13T02:04:48.508Z,0.85
2023-04-13T02:07:16.857Z,0.50
2023-04-13T02:09:47.862Z,0.93
2023-04-13T02:12:16.809Z,0.60
2023-04-13T02:14:43.830Z,0.75
2023-04-13T02:17:11.742Z,0.40
2023-04-13T02:19:40.722Z,0.40
2023-04-13T02:22:07.770Z,0.75
2023-04-13T02:24:34.804Z,0.60
2023-04-13T02:27:02.078Z,0.40
2023-04-13T02:29:29.650Z,0.40
2023-04-13T02:31:57.816Z,0.60
2023-04-13T02:34:26.045Z,0.52
2023-04-13T02:36:53.626Z,0.80
2023-04-13T02:39:20.871Z,0.77
2023-04-13T02:41:48.840Z,0.30
2023-04-13T02:44:22.021Z,1.17
2023-04-13T02:46:54.319Z,0.50
2023-04-13T02:49:21.485Z,0.52
2023-04-13T02:51:57.611Z,0.60
2023-04-13T02:54:38.007Z,0.40
2023-04-13T02:57:05.096Z,1.13
2023-04-13T02:59:35.027Z,0.45
2023-04-13T03:02:04.658Z,0.50
2023-04-13T03:04:33.332Z,0.30
2023-04-13T03:07:05.008Z,0.60
2023-04-13T03:09:32.945Z,0.50
2023-04-13T03:12:00.003Z,0.28
2023-04-13T03:14:29.816Z,0.20
2023-04-13T03:17:04.301Z,0.45
2023-04-13T03:19:39.367Z,0.32
2023-04-13T03:22:08.192Z,0.47
2023-04-13T03:24:39.826Z,0.43
2023-04-13T03:27:09.989Z,0.70
2023-04-13T03:29:45.295Z,0.60
2023-04-13T03:32:18.847Z,0.70
2023-04-13T03:34:49.663Z,0.90
2023-04-13T03:37:16.728Z,0.38
2023-04-13T03:39:44.339Z,0.75
2023-04-13T03:42:15.802Z,0.40
2023-04-13T03:44:50.129Z,0.32
2023-04-13T03:47:17.215Z,0.70
2023-04-13T03:49:44.237Z,0.63
2023-04-13T03:52:11.454Z,0.50
2023-04-13T03:54:42.449Z,0.70
2023-04-13T03:57:09.547Z,0.60
2023-04-13T03:59:36.768Z,0.45
2023-04-13T04:02:05.497Z,0.75
2023-04-13T04:04:35.782Z,1.63
2023-04-13T04:07:02.877Z,0.90
2023-04-13T04:09:31.727Z,0.63
2023-04-13T04:11:58.830Z,1.35
2023-04-13T04:14:37.112Z,1.17
2023-04-13T04:17:14.515Z,0.90
2023-04-13T04:19:41.763Z,1.10
2023-04-13T04:22:09.820Z,0.90
2023-04-13T04:24:42.246Z,1.42
2023-04-13T04:27:09.375Z,0.88
2023-04-13T04:29:36.481Z,0.82
2023-04-13T04:32:26.203Z,1.00
2023-04-13T04:34:54.999Z,1.55
2023-04-13T04:37:25.849Z,0.80
2023-04-13T04:40:10.583Z,0.80
2023-04-13T04:42:39.353Z,1.42
2023-04-13T04:45:16.929Z,1.63
2023-04-13T04:47:48.828Z,0.98
2023-04-13T04:50:20.277Z,0.90
2023-04-13T04:52:52.632Z,1.00
2023-04-13T04:55:23.443Z,1.02
2023-04-13T04:57:50.555Z,1.10
2023-04-13T05:00:20.231Z,1.15
2023-04-13T05:03:09.674Z,1.08
2023-04-13T05:05:40.317Z,0.90
2023-04-13T05:08:11.746Z,1.02
2023-04-13T05:10:46.089Z,1.43
2023-04-13T05:13:13.118Z,0.90
2023-04-13T05:15:43.298Z,1.08
2023-04-13T05:18:12.817Z,2.05
2023-04-13T05:20:41.508Z,1.55
2023-04-13T05:23:09.626Z,1.30
2023-04-13T05:25:43.007Z,1.15
2023-04-13T05:28:17.331Z,1.02
2023-04-13T05:30:45.322Z,1.52
2023-04-13T05:33:12.343Z,1.33
2023-04-13T05:35:40.584Z,1.10
2023-04-13T05:38:09.208Z,1.77
2023-04-13T05:40:36.279Z,0.68
2023-04-13T05:43:04.791Z,0.95
2023-04-13T05:45:36.067Z,2.30
2023-04-13T05:48:07.283Z,0.70
2023-04-13T05:50:34.706Z,1.27
2023-04-13T05:53:02.360Z,0.80
2023-04-13T05:55:45.096Z,0.90
2023-04-13T05:58:13.310Z,0.90
2023-04-13T06:00:41.345Z,1.33
2023-04-13T06:03:12.991Z,1.60
2023-04-13T06:05:40.325Z,0.80
2023-04-13T06:08:10.483Z,1.17
2023-04-13T06:10:38.954Z,1.30
2023-04-13T06:13:06.044Z,1.25
2023-04-13T06:15:36.319Z,0.90
2023-04-13T06:18:03.501Z,1.65
2023-04-13T06:20:33.316Z,1.23
2023-04-13T06:23:00.377Z,1.55
2023-04-13T06:25:27.995Z,1.27
2023-04-13T06:27:56.159Z,0.45
2023-04-13T06:30:23.259Z,3.47
2023-04-13T06:32:54.356Z,0.90
2023-04-13T06:35:23.614Z,0.60
2023-04-13T06:37:51.703Z,0.75
2023-04-13T06:40:25.629Z,1.05
2023-04-13T06:43:03.808Z,0.70
2023-04-13T06:45:40.252Z,0.70
2023-04-13T06:48:11.473Z,0.85
2023-04-13T06:50:39.423Z,1.17
2023-04-13T06:53:07.533Z,1.48
2023-04-13T06:55:35.022Z,0.80
2023-04-13T06:58:02.028Z,0.70
2023-04-13T07:00:30.610Z,1.27
2023-04-13T07:03:00.186Z,0.55
2023-04-13T07:05:28.004Z,1.10
2023-04-13T07:08:00.009Z,0.93
2023-04-13T07:10:27.221Z,0.90
2023-04-13T07:12:57.634Z,0.95
2023-04-13T07:15:27.782Z,1.05
2023-04-13T07:17:55.960Z,0.88
2023-04-13T07:20:23.059Z,0.98
2023-04-13T07:22:51.056Z,0.95
2023-04-13T07:25:18.229Z,0.90
2023-04-13T07:27:46.199Z,0.60
2023-04-13T07:30:13.770Z,0.90
2023-04-13T07:32:45.125Z,0.40
2023-04-13T07:35:12.620Z,1.20
2023-04-13T07:37:42.372Z,0.73
2023-04-13T07:40:11.887Z,0.80
2023-04-13T07:42:41.568Z,0.52
2023-04-13T07:45:13.952Z,0.52
2023-04-13T07:47:41.489Z,0.50
2023-04-13T07:50:09.749Z,0.73
2023-04-13T07:52:37.875Z,0.60
2023-04-13T07:55:06.126Z,0.90
2023-04-13T07:57:36.624Z,0.75
2023-04-13T08:00:06.179Z,0.82
2023-04-13T08:02:41.671Z,0.57
2023-04-13T08:05:12.499Z,0.60
2023-04-13T08:07:40.185Z,0.88
2023-04-13T08:10:08.488Z,0.60
2023-04-13T08:12:35.524Z,0.63
2023-04-13T08:15:02.928Z,0.50
2023-04-13T08:17:30.074Z,0.65
2023-04-13T08:19:57.411Z,0.40
2023-04-13T08:22:24.647Z,0.35
2023-04-13T08:24:51.637Z,0.60
2023-04-13T08:27:19.754Z,0.63
2023-04-13T08:29:47.364Z,2.05
2023-04-13T08:32:15.687Z,1.00
2023-04-13T08:34:42.842Z,0.30
2023-04-13T08:37:11.556Z,0.63
2023-04-13T08:39:38.660Z,0.70
2023-04-13T08:42:06.354Z,0.50
2023-04-13T08:44:40.144Z,1.05
2023-04-13T08:47:10.509Z,0.60
2023-04-13T08:49:39.282Z,0.43
2023-04-13T08:52:10.936Z,0.57
2023-04-13T08:54:40.406Z,0.60
2023-04-13T08:57:16.358Z,1.20
2023-04-13T08:59:44.499Z,0.57
2023-04-13T09:02:12.001Z,0.60
2023-04-13T09:04:53.972Z,0.40
2023-04-13T09:07:28.131Z,0.80
2023-04-13T09:10:00.674Z,1.60
2023-04-13T09:12:29.078Z,1.05
2023-04-13T09:14:56.469Z,0.75
2023-04-13T09:17:30.455Z,0.50
2023-04-13T09:22:38.111Z,0.43
2023-04-13T09:25:06.004Z,0.50
2023-04-13T09:27:35.133Z,0.55
2023-04-13T09:30:02.587Z,0.40
2023-04-13T09:32:29.609Z,0.47
2023-04-13T09:35:08.351Z,0.45
2023-04-13T09:37:36.887Z,0.68
2023-04-13T09:40:22.179Z,0.60
2023-04-13T09:42:58.909Z,0.85
2023-04-13T09:45:34.493Z,0.60
2023-04-13T09:48:05.545Z,0.38
2023-04-13T09:50:34.834Z,0.30
2023-04-13T09:53:06.497Z,0.75
2023-04-13T09:55:35.452Z,0.33
2023-04-13T09:58:10.076Z,0.30
2023-04-13T10:00:38.742Z,0.50
2023-04-13T10:03:11.687Z,0.68
2023-04-13T10:05:55.048Z,0.20
2023-04-13T10:08:36.889Z,0.45
2023-04-13T10:11:10.587Z,0.57
2023-04-13T10:13:47.841Z,0.43
2023-04-13T10:16:53.843Z,0.93
2023-04-13T10:19:24.769Z,0.40
2023-04-13T10:21:53.027Z,0.65
2023-04-13T10:24:22.183Z,0.60
2023-04-13T10:27:00.249Z,0.40
2023-04-13T10:29:32.627Z,1.48
2023-04-13T10:32:03.657Z,0.57
2023-04-13T10:34:34.295Z,0.70
2023-04-13T10:37:06.182Z,0.40
2023-04-13T10:39:34.941Z,0.50
2023-04-13T10:42:07.969Z,0.70
2023-04-13T10:44:47.707Z,0.32
2023-04-13T10:47:17.344Z,0.70
2023-04-13T10:49:48.338Z,2.50
2023-04-13T10:52:16.240Z,0.70
2023-04-13T10:54:44.572Z,0.30
2023-04-13T10:57:12.755Z,0.70
2023-04-13T10:59:55.670Z,0.57
2023-04-13T11:02:26.119Z,0.88
2023-04-13T11:04:53.628Z,0.73
2023-04-13T11:07:23.443Z,0.63
2023-04-13T11:09:50.868Z,0.88
2023-04-13T11:12:18.691Z,0.75
2023-04-13T11:14:49.548Z,0.70
2023-04-13T11:17:18.853Z,0.50
2023-04-13T11:19:56.874Z,0.70
2023-04-13T11:22:27.658Z,0.30
2023-04-13T11:25:06.722Z,0.57
2023-04-13T11:27:33.730Z,0.40
2023-04-13T11:30:06.030Z,0.20
2023-04-13T11:32:34.092Z,0.43
2023-04-13T11:35:08.613Z,0.35
2023-04-13T11:37:40.722Z,0.45
2023-04-13T11:40:10.550Z,0.63
2023-04-13T11:42:48.332Z,0.75
2023-04-13T11:45:17.319Z,0.70
2023-04-13T11:47:46.143Z,0.40
2023-04-13T11:50:15.824Z,0.52
2023-04-13T11:52:44.737Z,0.40
2023-04-13T11:55:22.438Z,0.70
2023-04-13T11:57:52.869Z,0.52
2023-04-13T12:00:25.818Z,0.68
2023-04-13T12:05:31.279Z,0.70
2023-04-13T12:10:40.572Z,0.93
2023-04-13T12:16:05.581Z,1.83
2023-04-13T12:18:44.256Z,1.58
2023-04-13T12:21:16.372Z,0.80
2023-04-13T12:23:54.343Z,1.17
2023-04-13T12:31:21.920Z,1.25
2023-04-13T12:33:49.028Z,1.75
2023-04-13T12:36:16.411Z,1.63
2023-04-13T12:38:43.625Z,1.27
2023-04-13T12:41:10.814Z,2.67
2023-04-13T12:43:37.888Z,1.55
2023-04-13T12:46:04.970Z,1.63
2023-04-13T12:48:31.944Z,1.40
2023-04-13T12:50:59.071Z,1.00
2023-04-13T12:53:26.215Z,1.13
2023-04-13T12:55:53.329Z,0.57
2023-04-13T12:58:20.480Z,0.80
2023-04-13T13:00:47.640Z,0.80
2023-04-13T13:03:15.296Z,0.68
2023-04-13T13:05:42.769Z,0.70
2023-04-13T13:08:09.777Z,0.65
2023-04-13T13:10:37.595Z,0.57
2023-04-13T13:13:06.105Z,1.05
2023-04-13T13:15:33.527Z,0.47
2023-04-13T13:18:02.983Z,0.70
2023-04-13T13:20:30.223Z,0.80
2023-04-13T13:22:57.680Z,0.73
2023-04-13T13:25:24.950Z,1.65
2023-04-13T13:30:21.936Z,0.93
2023-04-13T13:32:49.045Z,1.77
2023-04-13T13:35:16.667Z,1.02
2023-04-13T13:37:43.823Z,1.50
2023-04-13T13:40:12.910Z,1.20
2023-04-13T13:42:51.280Z,0.98
2023-04-13T13:45:22.859Z,2.75
2023-04-13T13:47:54.174Z,1.42
2023-04-13T13:50:28.668Z,1.92
2023-04-13T13:53:03.661Z,1.38
2023-04-13T13:55:36.070Z,1.60
2023-04-13T13:58:03.381Z,1.05
2023-04-13T14:00:31.055Z,1.70
2023-04-13T14:02:58.206Z,1.95
2023-04-13T14:05:25.328Z,1.30
2023-04-13T14:07:52.328Z,1.85
2023-04-13T14:10:19.326Z,1.25
2023-04-13T14:12:49.660Z,3.38
2023-04-13T14:15:17.710Z,2.38
2023-04-13T14:17:52.952Z,1.45
2023-04-13T14:20:29.327Z,1.20
2023-04-13T14:22:57.313Z,1.95
2023-04-13T14:25:24.311Z,2.03
2023-04-13T14:27:51.303Z,1.75
2023-04-13T14:30:18.863Z,2.28
2023-04-13T14:32:49.382Z,1.45
2023-04-13T14:35:16.710Z,2.17
2023-04-13T14:37:43.771Z,2.05
2023-04-13T14:40:17.022Z,1.67
2023-04-13T14:42:44.536Z,1.70
2023-04-13T14:45:12.344Z,1.75
2023-04-13T14:47:40.062Z,1.63
2023-04-13T14:50:08.323Z,2.17
2023-04-13T14:52:35.725Z,1.33
2023-04-13T14:55:02.910Z,2.88
2023-04-13T14:57:30.107Z,1.63
2023-04-13T14:59:57.126Z,1.60
2023-04-13T15:02:24.317Z,1.67
2023-04-13T15:04:51.604Z,1.65
2023-04-13T15:07:18.806Z,2.25
2023-04-13T15:09:45.852Z,1.60
2023-04-13T15:12:13.895Z,1.58
2023-04-13T15:14:46.468Z,1.70
2023-04-13T15:19:40.723Z,1.42
2023-04-13T15:22:07.741Z,2.47
2023-04-13T15:24:34.756Z,1.48
2023-04-13T15:27:01.839Z,1.40
2023-04-13T15:29:28.850Z,1.98
2023-04-13T15:31:55.885Z,1.40
2023-04-13T15:34:22.911Z,1.48
2023-04-13T15:36:49.898Z,1.55
2023-04-13T15:39:16.950Z,2.30
2023-04-13T15:41:44.013Z,1.92
2023-04-13T15:44:11.085Z,2.15
2023-04-13T15:46:38.430Z,3.25
2023-04-13T15:49:05.666Z,1.33
2023-04-13T15:51:32.791Z,1.63
2023-04-13T15:53:59.818Z,1.55
2023-04-13T15:56:28.394Z,1.67
2023-04-13T15:58:55.429Z,2.03
2023-04-13T16:01:22.681Z,1.65
2023-04-13T16:03:49.916Z,1.23
2023-04-13T16:06:17.031Z,0.98
2023-04-13T16:08:44.017Z,2.05
2023-04-13T16:11:11.663Z,1.42
2023-04-13T16:13:48.148Z,1.30
2023-04-13T16:16:16.737Z,1.83
2023-04-13T16:18:43.978Z,1.60
2023-04-13T16:21:12.293Z,1.98
2023-04-13T16:23:39.335Z,2.00
2023-04-13T16:26:06.404Z,1.38
2023-04-13T16:28:34.455Z,1.80
2023-04-13T16:31:01.905Z,1.25
2023-04-13T16:33:29.926Z,1.65
2023-04-13T16:35:58.224Z,1.48
2023-04-13T16:38:25.325Z,1.90
2023-04-13T16:40:52.352Z,1.83
2023-04-13T16:43:19.439Z,1.70
2023-04-13T16:45:47.100Z,2.38
2023-04-13T16:48:14.070Z,1.85
2023-04-13T16:50:41.268Z,1.38
2023-04-13T16:53:08.245Z,1.52
2023-04-13T16:55:35.232Z,1.45
2023-04-13T16:58:02.589Z,1.60
2023-04-13T17:00:29.633Z,1.38
2023-04-13T17:02:58.969Z,1.15
2023-04-13T17:05:28.378Z,1.23
2023-04-13T17:07:55.702Z,1.33
2023-04-13T17:10:23.040Z,1.42
2023-04-13T17:12:50.088Z,1.30
2023-04-13T17:15:19.146Z,1.60
2023-04-13T17:17:46.276Z,1.42
2023-04-13T17:20:15.119Z,1.88
2023-04-13T17:22:44.103Z,1.10
2023-04-13T17:25:11.249Z,1.50
2023-04-13T17:27:38.298Z,1.17
2023-04-13T17:30:06.398Z,1.45
2023-04-13T17:32:33.587Z,1.77
2023-04-13T17:35:00.989Z,1.90
2023-04-13T17:37:29.384Z,1.75
2023-04-13T17:39:56.508Z,2.00
2023-04-13T17:42:23.579Z,2.58
2023-04-13T17:44:50.679Z,1.77
2023-04-13T17:47:17.716Z,2.63
2023-04-13T17:49:44.826Z,1.30
2023-04-13T17:52:11.948Z,1.95
2023-04-13T17:54:40.419Z,1.48
2023-04-13T17:57:07.660Z,1.45
2023-04-13T17:59:34.707Z,1.63
2023-04-13T18:02:01.860Z,2.17
2023-04-13T18:04:31.350Z,1.77
2023-04-13T18:06:58.432Z,1.85
2023-04-13T18:09:49.570Z,1.95
2023-04-13T18:16:33.803Z,2.05
2023-04-13T18:19:42.068Z,1.95
2023-04-13T18:23:17.974Z,1.63
2023-04-13T18:26:37.993Z,1.65
2023-04-13T18:30:13.853Z,2.63
2023-04-13T18:36:10.872Z,3.08
2023-04-13T18:39:48.620Z,3.83
2023-04-13T18:52:49.855Z,3.90
2023-04-13T18:59:50.186Z,10.88
2023-04-13T19:03:17.330Z,9.65
2023-04-13T19:06:53.735Z,7.90
2023-04-13T19:14:42.070Z,4.85
2023-04-13T19:21:46.134Z,5.93
2023-04-13T19:26:04.659Z,5.55
2023-04-13T19:41:35.622Z,3.67
2023-04-13T19:53:14.412Z,3.67
2023-04-13T19:57:18.677Z,3.67
2023-04-13T20:01:21.673Z,3.83
2023-04-13T20:07:43.999Z,4.18
2023-04-13T20:10:12.190Z,4.70
2023-04-13T20:12:51.081Z,3.58
2023-04-13T20:15:22.762Z,3.97
2023-04-13T20:17:51.216Z,3.93
2023-04-13T20:20:20.590Z,3.58
2023-04-13T20:22:48.810Z,4.43
2023-04-13T20:25:15.941Z,4.65
2023-04-13T20:27:42.982Z,5.00
2023-04-13T20:30:10.866Z,5.28
2023-04-13T20:32:38.887Z,4.45
2023-04-13T20:35:06.380Z,4.78
2023-04-13T20:37:33.488Z,3.30
2023-04-13T20:40:00.626Z,4.63
2023-04-13T20:42:30.661Z,4.93
2023-04-13T20:44:58.372Z,4.18
2023-04-13T20:47:31.445Z,4.13
2023-04-13T20:49:59.858Z,3.63
2023-04-13T20:52:29.813Z,5.80
2023-04-13T20:54:56.948Z,5.80
2023-04-13T20:57:24.145Z,5.70
2023-04-13T20:59:52.082Z,6.18
2023-04-13T21:02:19.253Z,7.43
2023-04-13T21:04:46.699Z,7.07
2023-04-13T21:07:15.271Z,7.13
2023-04-13T21:09:42.578Z,7.50
2023-04-13T21:12:09.643Z,6.93
2023-04-13T21:14:36.725Z,5.65
2023-04-13T21:17:03.713Z,5.65
2023-04-13T21:19:32.439Z,6.95
2023-04-13T21:21:59.531Z,5.97
2023-04-13T21:24:26.573Z,5.53
2023-04-13T21:26:53.562Z,5.63
2023-04-13T21:29:20.734Z,4.85
2023-04-13T21:31:48.180Z,5.80
2023-04-13T21:34:16.604Z,4.68
2023-04-13T21:39:15.866Z,6.18
2023-04-13T21:41:42.861Z,4.25
2023-04-13T21:44:22.651Z,4.80
2023-04-13T21:46:55.888Z,4.55
2023-04-13T21:49:22.997Z,5.93
2023-04-13T21:51:50.097Z,4.05
2023-04-13T21:54:17.138Z,5.18
2023-04-13T21:56:44.174Z,5.70
2023-04-13T21:59:11.362Z,4.90
2023-04-13T22:01:38.617Z,5.13
2023-04-13T22:04:06.214Z,4.80
2023-04-13T22:06:33.314Z,5.22
2023-04-13T22:09:00.803Z,5.97
2023-04-13T22:11:28.197Z,5.95
2023-04-13T22:13:55.233Z,6.72
2023-04-13T22:16:22.582Z,4.95
2023-04-13T22:18:49.814Z,4.88
2023-04-13T22:21:16.824Z,5.47
2023-04-13T22:23:43.862Z,6.15
2023-04-13T22:26:10.862Z,5.50
2023-04-13T22:28:37.886Z,5.90
2023-04-13T22:31:08.972Z,6.45
2023-04-13T22:33:36.404Z,6.95
2023-04-13T22:36:05.041Z,5.93
2023-04-13T22:38:32.151Z,5.38
2023-04-13T22:40:59.228Z,4.95
2023-04-13T22:43:26.241Z,5.93
2023-04-13T22:46:00.104Z,4.13
2023-04-13T22:48:28.482Z,4.95
2023-04-13T22:50:56.883Z,4.78
2023-04-13T22:53:24.221Z,4.18
2023-04-13T22:55:51.205Z,4.43
2023-04-13T22:58:18.184Z,4.45
2023-04-13T23:00:45.258Z,4.50
2023-04-13T23:03:13.242Z,4.72
2023-04-13T23:05:40.593Z,5.13
2023-04-13T23:08:07.602Z,5.00
2023-04-13T23:10:34.610Z,4.07
2023-04-13T23:13:01.625Z,4.53
2023-04-13T23:15:28.650Z,4.22
2023-04-13T23:17:56.861Z,4.18
2023-04-13T23:20:24.010Z,4.75
2023-04-13T23:22:51.156Z,4.32
2023-04-13T23:25:18.130Z,5.30
2023-04-13T23:27:45.253Z,3.95
2023-04-13T23:30:12.749Z,4.68
2023-04-13T23:32:39.908Z,4.80
2023-04-13T23:35:07.676Z,4.47
2023-04-13T23:37:34.681Z,4.60
2023-04-13T23:40:01.694Z,5.25
2023-04-13T23:42:28.686Z,5.15
2023-04-13T23:44:55.678Z,5.05
2023-04-13T23:47:22.762Z,4.28
2023-04-13T23:49:51.421Z,5.15
2023-04-13T23:52:18.796Z,4.13
2023-04-13T23:54:45.830Z,3.58
2023-04-13T23:57:12.889Z,3.65
2023-04-13T23:59:39.945Z,4.25
